Bear Creek Observed Data For Previous 48 Hours

Caption
Day and Hour Reservoir Elevation (behind dam)* Tailwater Elevation (below dam)* Average Hourly Discharge*
2/19/2018 1 AM CST 585.10 545.58 1,540
2/19/2018 2 AM CST 585.03 545.57 1,537
2/19/2018 3 AM CST 584.94 545.53 1,526
2/19/2018 4 AM CST 584.86 545.53 1,526
2/19/2018 5 AM CST 584.78 545.50 1,518
2/19/2018 6 AM CST 584.70 545.50 1,518
2/19/2018 7 AM CST 584.61 545.49 1,516
2/19/2018 8 AM CST 584.53 545.47 1,510
2/19/2018 9 AM CST 584.45 545.46 1,507
2/19/2018 10 AM CST 584.36 545.44 1,502
2/19/2018 11 AM CST 584.28 545.42 1,497
2/19/2018 12 PM CST 584.20 545.42 1,497
2/19/2018 1 PM CST 584.11 545.40 1,491
2/19/2018 2 PM CST 584.03 545.40 1,491
2/19/2018 3 PM CST 583.94 545.38 1,486
2/19/2018 4 PM CST 583.86 545.38 1,486
2/19/2018 5 PM CST 583.77 545.35 1,478
2/19/2018 6 PM CST 583.69 545.33 1,472
2/19/2018 7 PM CST 583.62 545.28 1,459
2/19/2018 8 PM CST 583.54 545.31 1,467
2/19/2018 9 PM CST 583.48 545.31 1,467
2/19/2018 10 PM CST 583.41 545.30 1,464
2/19/2018 11 PM CST 583.35 545.29 1,462
2/20/2018 12 AM CST 583.28 545.27 1,456
2/20/2018 1 AM CST 583.21 545.28 1,459
2/20/2018 2 AM CST 583.14 545.27 1,456
2/20/2018 3 AM CST 583.08 545.25 1,451
2/20/2018 4 AM CST 583.01 545.23 1,445
2/20/2018 5 AM CST 582.94 545.23 1,445
2/20/2018 6 AM CST 582.88 545.22 1,443
2/20/2018 7 AM CST 582.88 545.21 1,440
2/20/2018 8 AM CST 582.74 545.20 1,437
2/20/2018 9 AM CST 582.67 545.20 1,437
2/20/2018 10 AM CST 582.61 545.19 1,435
2/20/2018 11 AM CST 582.53 545.17 1,429
2/20/2018 12 PM CST 582.46 545.16 1,426
2/20/2018 1 PM CST 582.39 545.15 1,424
2/20/2018 2 PM CST 582.32 545.14 1,421
2/20/2018 3 PM CST 582.25 545.13 1,418
2/20/2018 4 PM CST 582.18 545.11 1,413
2/20/2018 5 PM CST 582.12 545.11 1,413
2/20/2018 6 PM CST 582.04 545.09 1,408
2/20/2018 7 PM CST 581.98 545.11 1,413
2/20/2018 8 PM CST 581.91 545.08 1,405
2/20/2018 9 PM CST 581.83 545.08 1,405
2/20/2018 10 PM CST 581.76 545.09 1,408

Elevations are in feet above sea level. Discharges are in cubic feet per second and are reported at the end of the hour.